sensor_id;sensor_type;location;lat;lon;timestamp;P1;durP1;ratioP1;P2;durP2;ratioP2
71236;SDS011;58984;51.960;5.582;2024-01-25T00:01:25;17.08;;;7.63;;
71236;SDS011;58984;51.960;5.582;2024-01-25T00:03:53;17.02;;;7.68;;
71236;SDS011;58984;51.960;5.582;2024-01-25T00:06:21;25.15;;;8.27;;
71236;SDS011;58984;51.960;5.582;2024-01-25T00:08:47;21.23;;;8.13;;
71236;SDS011;58984;51.960;5.582;2024-01-25T00:11:13;18.45;;;7.18;;
71236;SDS011;58984;51.960;5.582;2024-01-25T00:13:38;19.42;;;7.75;;
71236;SDS011;58984;51.960;5.582;2024-01-25T00:16:04;21.33;;;7.07;;
71236;SDS011;58984;51.960;5.582;2024-01-25T00:18:31;20.80;;;7.38;;
71236;SDS011;58984;51.960;5.582;2024-01-25T00:20:56;16.33;;;7.38;;
71236;SDS011;58984;51.960;5.582;2024-01-25T00:23:22;24.88;;;7.57;;
71236;SDS011;58984;51.960;5.582;2024-01-25T00:25:48;17.05;;;6.45;;
71236;SDS011;58984;51.960;5.582;2024-01-25T00:28:13;15.95;;;6.95;;
71236;SDS011;58984;51.960;5.582;2024-01-25T00:30:39;15.38;;;7.15;;
71236;SDS011;58984;51.960;5.582;2024-01-25T00:33:05;16.60;;;7.13;;
71236;SDS011;58984;51.960;5.582;2024-01-25T00:35:34;15.75;;;6.75;;
71236;SDS011;58984;51.960;5.582;2024-01-25T00:38:00;16.08;;;7.22;;
71236;SDS011;58984;51.960;5.582;2024-01-25T00:40:26;15.50;;;6.63;;
71236;SDS011;58984;51.960;5.582;2024-01-25T00:42:52;22.85;;;7.80;;
71236;SDS011;58984;51.960;5.582;2024-01-25T00:45:18;17.13;;;6.50;;
71236;SDS011;58984;51.960;5.582;2024-01-25T00:47:45;21.23;;;7.82;;
71236;SDS011;58984;51.960;5.582;2024-01-25T00:50:11;25.00;;;6.82;;
71236;SDS011;58984;51.960;5.582;2024-01-25T00:52:38;20.83;;;6.82;;
71236;SDS011;58984;51.960;5.582;2024-01-25T00:55:04;16.85;;;7.57;;
71236;SDS011;58984;51.960;5.582;2024-01-25T00:57:30;17.27;;;6.60;;
71236;SDS011;58984;51.960;5.582;2024-01-25T00:59:57;19.92;;;6.32;;
71236;SDS011;58984;51.960;5.582;2024-01-25T01:02:24;21.50;;;7.68;;
71236;SDS011;58984;51.960;5.582;2024-01-25T01:04:55;23.85;;;6.88;;
71236;SDS011;58984;51.960;5.582;2024-01-25T01:07:22;13.88;;;6.78;;
71236;SDS011;58984;51.960;5.582;2024-01-25T01:09:48;15.93;;;6.80;;
71236;SDS011;58984;51.960;5.582;2024-01-25T01:12:16;15.13;;;6.95;;
71236;SDS011;58984;51.960;5.582;2024-01-25T01:14:42;17.70;;;5.97;;
71236;SDS011;58984;51.960;5.582;2024-01-25T01:17:08;16.52;;;6.57;;
71236;SDS011;58984;51.960;5.582;2024-01-25T01:19:34;16.65;;;7.25;;
71236;SDS011;58984;51.960;5.582;2024-01-25T01:21:59;24.52;;;6.72;;
71236;SDS011;58984;51.960;5.582;2024-01-25T01:24:25;22.95;;;7.18;;
71236;SDS011;58984;51.960;5.582;2024-01-25T01:26:54;29.60;;;7.97;;
71236;SDS011;58984;51.960;5.582;2024-01-25T01:29:20;17.70;;;6.82;;
71236;SDS011;58984;51.960;5.582;2024-01-25T01:31:45;22.13;;;7.03;;
71236;SDS011;58984;51.960;5.582;2024-01-25T01:34:11;22.30;;;7.05;;
71236;SDS011;58984;51.960;5.582;2024-01-25T01:36:39;20.10;;;7.82;;
71236;SDS011;58984;51.960;5.582;2024-01-25T01:39:05;20.40;;;7.20;;
71236;SDS011;58984;51.960;5.582;2024-01-25T01:41:31;25.08;;;8.10;;
71236;SDS011;58984;51.960;5.582;2024-01-25T01:43:57;18.50;;;7.07;;
71236;SDS011;58984;51.960;5.582;2024-01-25T01:48:58;24.77;;;7.20;;
71236;SDS011;58984;51.960;5.582;2024-01-25T01:51:24;20.42;;;6.70;;
71236;SDS011;58984;51.960;5.582;2024-01-25T01:53:50;14.30;;;7.30;;
71236;SDS011;58984;51.960;5.582;2024-01-25T01:56:17;21.33;;;7.63;;
71236;SDS011;58984;51.960;5.582;2024-01-25T01:58:45;18.08;;;6.80;;
71236;SDS011;58984;51.960;5.582;2024-01-25T02:01:13;15.68;;;6.22;;
71236;SDS011;58984;51.960;5.582;2024-01-25T02:03:39;17.85;;;7.55;;
71236;SDS011;58984;51.960;5.582;2024-01-25T02:06:07;25.27;;;8.38;;
71236;SDS011;58984;51.960;5.582;2024-01-25T02:08:33;25.67;;;11.30;;
71236;SDS011;58984;51.960;5.582;2024-01-25T02:10:58;27.00;;;9.85;;
71236;SDS011;58984;51.960;5.582;2024-01-25T02:13:27;30.67;;;9.60;;
71236;SDS011;58984;51.960;5.582;2024-01-25T02:15:52;23.73;;;10.90;;
71236;SDS011;58984;51.960;5.582;2024-01-25T02:18:18;27.10;;;11.90;;
71236;SDS011;58984;51.960;5.582;2024-01-25T02:20:44;26.02;;;10.55;;
71236;SDS011;58984;51.960;5.582;2024-01-25T02:23:09;33.22;;;11.38;;
71236;SDS011;58984;51.960;5.582;2024-01-25T02:25:35;24.17;;;9.80;;
71236;SDS011;58984;51.960;5.582;2024-01-25T02:28:01;34.03;;;10.07;;
71236;SDS011;58984;51.960;5.582;2024-01-25T02:30:26;21.65;;;9.27;;
71236;SDS011;58984;51.960;5.582;2024-01-25T02:32:54;26.00;;;8.82;;
71236;SDS011;58984;51.960;5.582;2024-01-25T02:35:20;24.58;;;9.10;;
71236;SDS011;58984;51.960;5.582;2024-01-25T02:37:47;24.02;;;8.73;;
71236;SDS011;58984;51.960;5.582;2024-01-25T02:40:15;23.83;;;7.95;;
71236;SDS011;58984;51.960;5.582;2024-01-25T02:42:41;24.63;;;9.13;;
71236;SDS011;58984;51.960;5.582;2024-01-25T02:45:07;28.75;;;9.57;;
71236;SDS011;58984;51.960;5.582;2024-01-25T02:47:33;19.85;;;8.63;;
71236;SDS011;58984;51.960;5.582;2024-01-25T02:49:58;19.85;;;7.32;;
71236;SDS011;58984;51.960;5.582;2024-01-25T02:52:24;19.27;;;8.02;;
71236;SDS011;58984;51.960;5.582;2024-01-25T02:54:50;24.73;;;8.75;;
71236;SDS011;58984;51.960;5.582;2024-01-25T02:57:15;20.80;;;8.10;;
71236;SDS011;58984;51.960;5.582;2024-01-25T02:59:41;21.60;;;8.25;;
71236;SDS011;58984;51.960;5.582;2024-01-25T03:02:07;22.88;;;7.70;;
71236;SDS011;58984;51.960;5.582;2024-01-25T03:04:33;23.20;;;8.30;;
71236;SDS011;58984;51.960;5.582;2024-01-25T03:06:58;18.42;;;7.65;;
71236;SDS011;58984;51.960;5.582;2024-01-25T03:09:24;15.50;;;8.27;;
71236;SDS011;58984;51.960;5.582;2024-01-25T03:11:50;20.73;;;7.72;;
71236;SDS011;58984;51.960;5.582;2024-01-25T03:14:15;15.05;;;7.75;;
71236;SDS011;58984;51.960;5.582;2024-01-25T03:16:44;18.60;;;8.00;;
71236;SDS011;58984;51.960;5.582;2024-01-25T03:19:10;21.23;;;7.97;;
71236;SDS011;58984;51.960;5.582;2024-01-25T03:21:36;22.10;;;8.02;;
71236;SDS011;58984;51.960;5.582;2024-01-25T03:24:04;21.23;;;7.70;;
71236;SDS011;58984;51.960;5.582;2024-01-25T03:26:31;18.67;;;7.90;;
71236;SDS011;58984;51.960;5.582;2024-01-25T03:28:57;23.45;;;7.63;;
71236;SDS011;58984;51.960;5.582;2024-01-25T03:31:25;22.10;;;7.63;;
71236;SDS011;58984;51.960;5.582;2024-01-25T03:33:51;18.92;;;7.80;;
71236;SDS011;58984;51.960;5.582;2024-01-25T03:36:16;17.20;;;7.28;;
71236;SDS011;58984;51.960;5.582;2024-01-25T03:38:42;26.75;;;8.07;;
71236;SDS011;58984;51.960;5.582;2024-01-25T03:41:08;19.42;;;7.18;;
71236;SDS011;58984;51.960;5.582;2024-01-25T03:43:34;24.77;;;7.43;;
71236;SDS011;58984;51.960;5.582;2024-01-25T03:46:00;17.17;;;7.90;;
71236;SDS011;58984;51.960;5.582;2024-01-25T03:48:26;25.55;;;7.68;;
71236;SDS011;58984;51.960;5.582;2024-01-25T03:50:55;24.27;;;7.50;;
71236;SDS011;58984;51.960;5.582;2024-01-25T03:53:21;18.25;;;8.38;;
71236;SDS011;58984;51.960;5.582;2024-01-25T03:55:48;25.65;;;7.78;;
71236;SDS011;58984;51.960;5.582;2024-01-25T03:58:14;27.60;;;8.05;;
71236;SDS011;58984;51.960;5.582;2024-01-25T04:00:43;23.77;;;8.00;;
71236;SDS011;58984;51.960;5.582;2024-01-25T04:03:09;20.70;;;7.63;;
71236;SDS011;58984;51.960;5.582;2024-01-25T04:05:38;18.63;;;7.00;;
71236;SDS011;58984;51.960;5.582;2024-01-25T04:08:04;20.88;;;7.57;;
71236;SDS011;58984;51.960;5.582;2024-01-25T04:10:31;25.15;;;8.00;;
71236;SDS011;58984;51.960;5.582;2024-01-25T04:12:57;20.45;;;7.82;;
71236;SDS011;58984;51.960;5.582;2024-01-25T04:15:25;23.45;;;8.43;;
71236;SDS011;58984;51.960;5.582;2024-01-25T04:17:53;19.67;;;7.10;;
71236;SDS011;58984;51.960;5.582;2024-01-25T04:20:19;23.58;;;8.27;;
71236;SDS011;58984;51.960;5.582;2024-01-25T04:22:44;27.30;;;7.60;;
71236;SDS011;58984;51.960;5.582;2024-01-25T04:25:12;20.73;;;7.43;;
71236;SDS011;58984;51.960;5.582;2024-01-25T04:27:38;25.70;;;7.75;;
71236;SDS011;58984;51.960;5.582;2024-01-25T04:30:04;17.90;;;7.70;;
71236;SDS011;58984;51.960;5.582;2024-01-25T04:32:33;19.30;;;7.55;;
71236;SDS011;58984;51.960;5.582;2024-01-25T04:34:59;20.15;;;7.35;;
71236;SDS011;58984;51.960;5.582;2024-01-25T04:37:25;18.67;;;8.10;;
71236;SDS011;58984;51.960;5.582;2024-01-25T04:39:51;18.30;;;7.40;;
71236;SDS011;58984;51.960;5.582;2024-01-25T04:42:17;23.05;;;7.97;;
71236;SDS011;58984;51.960;5.582;2024-01-25T04:44:43;17.75;;;7.35;;
71236;SDS011;58984;51.960;5.582;2024-01-25T04:47:08;23.20;;;7.85;;
71236;SDS011;58984;51.960;5.582;2024-01-25T04:49:34;19.20;;;7.18;;
71236;SDS011;58984;51.960;5.582;2024-01-25T04:52:01;22.42;;;7.88;;
71236;SDS011;58984;51.960;5.582;2024-01-25T04:54:27;17.75;;;6.93;;
71236;SDS011;58984;51.960;5.582;2024-01-25T04:56:55;22.60;;;7.82;;
71236;SDS011;58984;51.960;5.582;2024-01-25T04:59:21;20.35;;;8.23;;
71236;SDS011;58984;51.960;5.582;2024-01-25T05:01:46;20.15;;;8.25;;
71236;SDS011;58984;51.960;5.582;2024-01-25T05:04:12;19.05;;;8.75;;
71236;SDS011;58984;51.960;5.582;2024-01-25T05:06:38;19.83;;;8.25;;
71236;SDS011;58984;51.960;5.582;2024-01-25T05:09:03;20.17;;;8.05;;
71236;SDS011;58984;51.960;5.582;2024-01-25T05:11:29;26.05;;;8.88;;
71236;SDS011;58984;51.960;5.582;2024-01-25T05:13:57;19.40;;;7.57;;
71236;SDS011;58984;51.960;5.582;2024-01-25T05:16:31;27.88;;;8.23;;
71236;SDS011;58984;51.960;5.582;2024-01-25T05:18:56;18.83;;;7.30;;
71236;SDS011;58984;51.960;5.582;2024-01-25T05:21:22;26.33;;;8.52;;
71236;SDS011;58984;51.960;5.582;2024-01-25T05:23:48;26.05;;;8.07;;
71236;SDS011;58984;51.960;5.582;2024-01-25T05:26:14;26.20;;;8.20;;
71236;SDS011;58984;51.960;5.582;2024-01-25T05:28:40;21.98;;;8.10;;
71236;SDS011;58984;51.960;5.582;2024-01-25T05:31:06;18.73;;;7.75;;
71236;SDS011;58984;51.960;5.582;2024-01-25T05:33:37;22.90;;;7.93;;
71236;SDS011;58984;51.960;5.582;2024-01-25T05:36:06;23.63;;;8.75;;
71236;SDS011;58984;51.960;5.582;2024-01-25T05:38:32;20.90;;;8.80;;
71236;SDS011;58984;51.960;5.582;2024-01-25T05:40:58;26.98;;;9.40;;
71236;SDS011;58984;51.960;5.582;2024-01-25T05:43:24;16.17;;;8.20;;
71236;SDS011;58984;51.960;5.582;2024-01-25T05:45:50;27.55;;;8.90;;
71236;SDS011;58984;51.960;5.582;2024-01-25T05:48:16;23.83;;;8.75;;
71236;SDS011;58984;51.960;5.582;2024-01-25T05:50:45;37.67;;;9.80;;
71236;SDS011;58984;51.960;5.582;2024-01-25T05:53:10;28.98;;;8.90;;
71236;SDS011;58984;51.960;5.582;2024-01-25T05:55:36;20.58;;;9.50;;
71236;SDS011;58984;51.960;5.582;2024-01-25T05:58:02;22.33;;;9.93;;
71236;SDS011;58984;51.960;5.582;2024-01-25T06:00:27;25.50;;;9.73;;
71236;SDS011;58984;51.960;5.582;2024-01-25T06:02:53;22.98;;;9.02;;
71236;SDS011;58984;51.960;5.582;2024-01-25T06:05:19;20.90;;;8.52;;
71236;SDS011;58984;51.960;5.582;2024-01-25T06:07:45;21.70;;;8.02;;
71236;SDS011;58984;51.960;5.582;2024-01-25T06:10:11;24.63;;;8.93;;
71236;SDS011;58984;51.960;5.582;2024-01-25T06:12:36;23.40;;;9.80;;
71236;SDS011;58984;51.960;5.582;2024-01-25T06:15:04;25.25;;;8.85;;
71236;SDS011;58984;51.960;5.582;2024-01-25T06:17:30;18.10;;;7.70;;
71236;SDS011;58984;51.960;5.582;2024-01-25T06:19:56;19.60;;;8.65;;
71236;SDS011;58984;51.960;5.582;2024-01-25T06:22:22;24.88;;;9.10;;
71236;SDS011;58984;51.960;5.582;2024-01-25T06:24:47;21.35;;;9.02;;
71236;SDS011;58984;51.960;5.582;2024-01-25T06:27:13;25.92;;;9.15;;
71236;SDS011;58984;51.960;5.582;2024-01-25T06:29:39;20.90;;;9.40;;
71236;SDS011;58984;51.960;5.582;2024-01-25T06:32:05;23.33;;;9.05;;
71236;SDS011;58984;51.960;5.582;2024-01-25T06:34:31;23.02;;;8.80;;
71236;SDS011;58984;51.960;5.582;2024-01-25T06:36:57;21.50;;;8.07;;
71236;SDS011;58984;51.960;5.582;2024-01-25T06:39:22;19.27;;;8.90;;
71236;SDS011;58984;51.960;5.582;2024-01-25T06:41:48;28.05;;;9.55;;
71236;SDS011;58984;51.960;5.582;2024-01-25T06:44:14;20.08;;;9.48;;
71236;SDS011;58984;51.960;5.582;2024-01-25T06:46:39;25.05;;;9.25;;
71236;SDS011;58984;51.960;5.582;2024-01-25T06:49:05;27.08;;;9.82;;
71236;SDS011;58984;51.960;5.582;2024-01-25T06:51:35;18.88;;;8.50;;
71236;SDS011;58984;51.960;5.582;2024-01-25T06:54:03;20.13;;;8.45;;
71236;SDS011;58984;51.960;5.582;2024-01-25T06:56:28;22.80;;;10.00;;
71236;SDS011;58984;51.960;5.582;2024-01-25T06:58:54;28.45;;;8.70;;
71236;SDS011;58984;51.960;5.582;2024-01-25T07:01:20;24.00;;;9.75;;
71236;SDS011;58984;51.960;5.582;2024-01-25T07:03:47;24.25;;;8.98;;
71236;SDS011;58984;51.960;5.582;2024-01-25T07:06:18;27.63;;;9.18;;
71236;SDS011;58984;51.960;5.582;2024-01-25T07:08:44;20.77;;;9.07;;
71236;SDS011;58984;51.960;5.582;2024-01-25T07:11:11;27.13;;;10.05;;
71236;SDS011;58984;51.960;5.582;2024-01-25T07:13:36;20.63;;;9.73;;
71236;SDS011;58984;51.960;5.582;2024-01-25T07:16:02;21.95;;;9.57;;
71236;SDS011;58984;51.960;5.582;2024-01-25T07:18:28;26.45;;;10.00;;
71236;SDS011;58984;51.960;5.582;2024-01-25T07:20:54;23.45;;;8.85;;
71236;SDS011;58984;51.960;5.582;2024-01-25T07:23:20;22.75;;;9.57;;
71236;SDS011;58984;51.960;5.582;2024-01-25T07:25:46;21.92;;;10.05;;
71236;SDS011;58984;51.960;5.582;2024-01-25T07:28:12;25.05;;;9.98;;
71236;SDS011;58984;51.960;5.582;2024-01-25T07:30:37;23.08;;;8.68;;
71236;SDS011;58984;51.960;5.582;2024-01-25T07:33:03;22.95;;;9.95;;
71236;SDS011;58984;51.960;5.582;2024-01-25T07:35:29;25.95;;;9.55;;
71236;SDS011;58984;51.960;5.582;2024-01-25T07:37:55;26.27;;;9.27;;
71236;SDS011;58984;51.960;5.582;2024-01-25T07:40:20;20.63;;;9.00;;
71236;SDS011;58984;51.960;5.582;2024-01-25T07:42:46;27.85;;;9.20;;
71236;SDS011;58984;51.960;5.582;2024-01-25T07:45:12;32.22;;;10.63;;
71236;SDS011;58984;51.960;5.582;2024-01-25T07:47:40;25.02;;;9.43;;
71236;SDS011;58984;51.960;5.582;2024-01-25T07:50:06;19.10;;;9.50;;
71236;SDS011;58984;51.960;5.582;2024-01-25T07:52:33;27.83;;;10.25;;
71236;SDS011;58984;51.960;5.582;2024-01-25T07:54:59;25.33;;;9.40;;
71236;SDS011;58984;51.960;5.582;2024-01-25T07:57:24;28.30;;;9.95;;
71236;SDS011;58984;51.960;5.582;2024-01-25T07:59:50;24.55;;;9.35;;
71236;SDS011;58984;51.960;5.582;2024-01-25T08:02:15;23.42;;;9.82;;
71236;SDS011;58984;51.960;5.582;2024-01-25T08:04:42;22.88;;;9.40;;
71236;SDS011;58984;51.960;5.582;2024-01-25T08:07:07;24.52;;;9.48;;
71236;SDS011;58984;51.960;5.582;2024-01-25T08:09:33;20.58;;;8.55;;
71236;SDS011;58984;51.960;5.582;2024-01-25T08:11:59;27.00;;;9.80;;
71236;SDS011;58984;51.960;5.582;2024-01-25T08:14:25;30.00;;;10.50;;
71236;SDS011;58984;51.960;5.582;2024-01-25T08:16:50;20.90;;;9.65;;
71236;SDS011;58984;51.960;5.582;2024-01-25T08:19:16;23.00;;;9.02;;
71236;SDS011;58984;51.960;5.582;2024-01-25T08:21:42;23.17;;;10.43;;
71236;SDS011;58984;51.960;5.582;2024-01-25T08:24:07;25.58;;;10.13;;
71236;SDS011;58984;51.960;5.582;2024-01-25T08:26:33;30.52;;;11.05;;
71236;SDS011;58984;51.960;5.582;2024-01-25T08:28:59;31.85;;;11.35;;
71236;SDS011;58984;51.960;5.582;2024-01-25T08:31:25;26.45;;;10.88;;
71236;SDS011;58984;51.960;5.582;2024-01-25T08:33:51;23.25;;;10.32;;
71236;SDS011;58984;51.960;5.582;2024-01-25T08:36:17;47.40;;;12.13;;
71236;SDS011;58984;51.960;5.582;2024-01-25T08:38:43;26.08;;;10.23;;
71236;SDS011;58984;51.960;5.582;2024-01-25T08:41:09;27.30;;;10.38;;
71236;SDS011;58984;51.960;5.582;2024-01-25T08:43:36;27.77;;;10.23;;
71236;SDS011;58984;51.960;5.582;2024-01-25T08:46:02;28.90;;;11.00;;
71236;SDS011;58984;51.960;5.582;2024-01-25T08:48:28;27.73;;;9.50;;
71236;SDS011;58984;51.960;5.582;2024-01-25T08:50:53;17.73;;;8.57;;
71236;SDS011;58984;51.960;5.582;2024-01-25T08:53:20;22.10;;;10.15;;
71236;SDS011;58984;51.960;5.582;2024-01-25T08:55:52;21.05;;;9.48;;
71236;SDS011;58984;51.960;5.582;2024-01-25T08:58:21;24.70;;;10.20;;
71236;SDS011;58984;51.960;5.582;2024-01-25T09:00:47;26.83;;;10.73;;
71236;SDS011;58984;51.960;5.582;2024-01-25T09:03:12;23.45;;;10.45;;
71236;SDS011;58984;51.960;5.582;2024-01-25T09:05:39;24.73;;;10.13;;
71236;SDS011;58984;51.960;5.582;2024-01-25T09:08:09;30.65;;;9.77;;
71236;SDS011;58984;51.960;5.582;2024-01-25T09:10:39;30.00;;;10.82;;
71236;SDS011;58984;51.960;5.582;2024-01-25T09:13:06;32.72;;;10.57;;
71236;SDS011;58984;51.960;5.582;2024-01-25T09:15:32;20.25;;;9.50;;
71236;SDS011;58984;51.960;5.582;2024-01-25T09:17:58;30.88;;;9.88;;
71236;SDS011;58984;51.960;5.582;2024-01-25T09:20:23;22.45;;;10.25;;
71236;SDS011;58984;51.960;5.582;2024-01-25T09:22:50;24.65;;;9.93;;
71236;SDS011;58984;51.960;5.582;2024-01-25T09:25:16;28.05;;;10.57;;
71236;SDS011;58984;51.960;5.582;2024-01-25T09:27:41;28.38;;;9.90;;
71236;SDS011;58984;51.960;5.582;2024-01-25T09:30:07;27.27;;;9.82;;
71236;SDS011;58984;51.960;5.582;2024-01-25T09:32:33;23.13;;;10.07;;
71236;SDS011;58984;51.960;5.582;2024-01-25T09:34:59;21.60;;;10.25;;
71236;SDS011;58984;51.960;5.582;2024-01-25T09:37:24;24.67;;;10.70;;
71236;SDS011;58984;51.960;5.582;2024-01-25T09:39:50;23.25;;;10.25;;
71236;SDS011;58984;51.960;5.582;2024-01-25T09:42:19;24.55;;;10.02;;
71236;SDS011;58984;51.960;5.582;2024-01-25T09:44:45;22.48;;;10.10;;
71236;SDS011;58984;51.960;5.582;2024-01-25T09:47:11;18.80;;;10.35;;
71236;SDS011;58984;51.960;5.582;2024-01-25T09:49:37;25.58;;;10.07;;
71236;SDS011;58984;51.960;5.582;2024-01-25T09:52:03;27.75;;;11.02;;
71236;SDS011;58984;51.960;5.582;2024-01-25T09:54:33;18.92;;;10.15;;
71236;SDS011;58984;51.960;5.582;2024-01-25T09:57:07;25.65;;;10.02;;
71236;SDS011;58984;51.960;5.582;2024-01-25T09:59:38;31.67;;;10.95;;
71236;SDS011;58984;51.960;5.582;2024-01-25T10:02:04;19.95;;;9.45;;
71236;SDS011;58984;51.960;5.582;2024-01-25T10:04:30;24.40;;;11.02;;
71236;SDS011;58984;51.960;5.582;2024-01-25T10:06:55;28.42;;;10.60;;
71236;SDS011;58984;51.960;5.582;2024-01-25T10:09:22;25.17;;;10.75;;
71236;SDS011;58984;51.960;5.582;2024-01-25T10:11:48;27.15;;;10.50;;
71236;SDS011;58984;51.960;5.582;2024-01-25T10:14:14;22.98;;;11.75;;
71236;SDS011;58984;51.960;5.582;2024-01-25T10:16:40;25.98;;;10.45;;
71236;SDS011;58984;51.960;5.582;2024-01-25T10:19:08;22.58;;;10.90;;
71236;SDS011;58984;51.960;5.582;2024-01-25T10:21:35;24.10;;;11.30;;
71236;SDS011;58984;51.960;5.582;2024-01-25T10:24:01;30.33;;;12.10;;
71236;SDS011;58984;51.960;5.582;2024-01-25T10:26:27;31.48;;;12.07;;
71236;SDS011;58984;51.960;5.582;2024-01-25T10:28:53;30.83;;;12.80;;
71236;SDS011;58984;51.960;5.582;2024-01-25T10:31:23;22.42;;;12.43;;
71236;SDS011;58984;51.960;5.582;2024-01-25T10:33:52;28.98;;;13.45;;
71236;SDS011;58984;51.960;5.582;2024-01-25T10:36:19;28.27;;;12.18;;
71236;SDS011;58984;51.960;5.582;2024-01-25T10:38:46;25.98;;;12.15;;
71236;SDS011;58984;51.960;5.582;2024-01-25T10:41:17;30.98;;;11.88;;
71236;SDS011;58984;51.960;5.582;2024-01-25T10:43:44;32.88;;;11.90;;
71236;SDS011;58984;51.960;5.582;2024-01-25T10:46:11;34.90;;;12.70;;
71236;SDS011;58984;51.960;5.582;2024-01-25T10:48:36;28.00;;;11.50;;
71236;SDS011;58984;51.960;5.582;2024-01-25T10:51:03;26.10;;;10.98;;
71236;SDS011;58984;51.960;5.582;2024-01-25T10:53:33;27.52;;;11.55;;
71236;SDS011;58984;51.960;5.582;2024-01-25T10:55:59;23.88;;;10.93;;
71236;SDS011;58984;51.960;5.582;2024-01-25T10:58:33;28.60;;;11.32;;
71236;SDS011;58984;51.960;5.582;2024-01-25T11:01:00;24.88;;;9.82;;
71236;SDS011;58984;51.960;5.582;2024-01-25T11:03:30;21.40;;;10.98;;
71236;SDS011;58984;51.960;5.582;2024-01-25T11:06:06;19.83;;;10.52;;
71236;SDS011;58984;51.960;5.582;2024-01-25T11:08:36;25.85;;;11.38;;
71236;SDS011;58984;51.960;5.582;2024-01-25T11:11:05;20.88;;;9.93;;
71236;SDS011;58984;51.960;5.582;2024-01-25T11:13:33;22.77;;;10.07;;
71236;SDS011;58984;51.960;5.582;2024-01-25T11:15:58;24.45;;;10.93;;
71236;SDS011;58984;51.960;5.582;2024-01-25T11:18:25;25.80;;;10.80;;
71236;SDS011;58984;51.960;5.582;2024-01-25T11:20:51;29.80;;;11.70;;
71236;SDS011;58984;51.960;5.582;2024-01-25T11:23:16;22.48;;;11.77;;
71236;SDS011;58984;51.960;5.582;2024-01-25T11:25:45;31.02;;;11.95;;
71236;SDS011;58984;51.960;5.582;2024-01-25T11:28:19;24.58;;;11.38;;
71236;SDS011;58984;51.960;5.582;2024-01-25T11:30:45;26.88;;;11.02;;
71236;SDS011;58984;51.960;5.582;2024-01-25T11:33:12;27.48;;;11.45;;
71236;SDS011;58984;51.960;5.582;2024-01-25T11:35:39;24.90;;;11.55;;
71236;SDS011;58984;51.960;5.582;2024-01-25T11:38:06;33.50;;;11.95;;
71236;SDS011;58984;51.960;5.582;2024-01-25T11:40:33;28.17;;;11.82;;
71236;SDS011;58984;51.960;5.582;2024-01-25T11:42:59;30.50;;;13.55;;
71236;SDS011;58984;51.960;5.582;2024-01-25T11:45:26;29.73;;;13.23;;
71236;SDS011;58984;51.960;5.582;2024-01-25T11:47:51;29.60;;;12.55;;
71236;SDS011;58984;51.960;5.582;2024-01-25T11:50:24;36.65;;;17.58;;
71236;SDS011;58984;51.960;5.582;2024-01-25T11:52:50;46.00;;;24.50;;
71236;SDS011;58984;51.960;5.582;2024-01-25T11:55:16;52.00;;;23.50;;
71236;SDS011;58984;51.960;5.582;2024-01-25T11:57:41;40.95;;;21.67;;
71236;SDS011;58984;51.960;5.582;2024-01-25T12:00:09;36.80;;;21.02;;
71236;SDS011;58984;51.960;5.582;2024-01-25T12:02:37;51.85;;;23.05;;
71236;SDS011;58984;51.960;5.582;2024-01-25T12:05:04;57.40;;;24.00;;
71236;SDS011;58984;51.960;5.582;2024-01-25T12:07:30;50.92;;;23.90;;
71236;SDS011;58984;51.960;5.582;2024-01-25T12:09:57;42.60;;;21.25;;
71236;SDS011;58984;51.960;5.582;2024-01-25T12:12:28;45.43;;;20.23;;
71236;SDS011;58984;51.960;5.582;2024-01-25T12:15:00;39.35;;;20.98;;
71236;SDS011;58984;51.960;5.582;2024-01-25T12:17:33;36.92;;;20.75;;
71236;SDS011;58984;51.960;5.582;2024-01-25T12:20:01;38.92;;;19.58;;
71236;SDS011;58984;51.960;5.582;2024-01-25T12:22:27;38.15;;;18.10;;
71236;SDS011;58984;51.960;5.582;2024-01-25T12:24:54;48.63;;;18.58;;
71236;SDS011;58984;51.960;5.582;2024-01-25T12:27:20;40.60;;;18.15;;
71236;SDS011;58984;51.960;5.582;2024-01-25T12:29:50;38.58;;;17.50;;
71236;SDS011;58984;51.960;5.582;2024-01-25T12:32:16;37.05;;;17.10;;
71236;SDS011;58984;51.960;5.582;2024-01-25T12:34:42;39.15;;;16.10;;
71236;SDS011;58984;51.960;5.582;2024-01-25T12:37:17;36.65;;;16.83;;
71236;SDS011;58984;51.960;5.582;2024-01-25T12:39:42;41.05;;;18.70;;
71236;SDS011;58984;51.960;5.582;2024-01-25T12:42:08;44.38;;;17.60;;
71236;SDS011;58984;51.960;5.582;2024-01-25T12:44:34;31.92;;;16.33;;
71236;SDS011;58984;51.960;5.582;2024-01-25T12:46:59;34.78;;;15.73;;
71236;SDS011;58984;51.960;5.582;2024-01-25T12:49:27;26.42;;;14.25;;
71236;SDS011;58984;51.960;5.582;2024-01-25T12:51:53;31.42;;;14.98;;
71236;SDS011;58984;51.960;5.582;2024-01-25T12:54:19;28.55;;;14.57;;
71236;SDS011;58984;51.960;5.582;2024-01-25T12:56:45;30.27;;;15.10;;
71236;SDS011;58984;51.960;5.582;2024-01-25T12:59:11;31.33;;;16.38;;
71236;SDS011;58984;51.960;5.582;2024-01-25T13:01:37;31.42;;;15.15;;
71236;SDS011;58984;51.960;5.582;2024-01-25T13:04:03;32.70;;;15.38;;
71236;SDS011;58984;51.960;5.582;2024-01-25T13:06:28;29.38;;;14.77;;
71236;SDS011;58984;51.960;5.582;2024-01-25T13:08:54;30.17;;;15.27;;
71236;SDS011;58984;51.960;5.582;2024-01-25T13:11:20;30.05;;;14.60;;
71236;SDS011;58984;51.960;5.582;2024-01-25T13:13:45;35.85;;;15.82;;
71236;SDS011;58984;51.960;5.582;2024-01-25T13:16:11;30.55;;;14.90;;
71236;SDS011;58984;51.960;5.582;2024-01-25T13:18:36;33.33;;;16.65;;
71236;SDS011;58984;51.960;5.582;2024-01-25T13:21:02;31.77;;;15.07;;
71236;SDS011;58984;51.960;5.582;2024-01-25T13:23:28;34.60;;;16.67;;
71236;SDS011;58984;51.960;5.582;2024-01-25T13:25:53;36.75;;;16.33;;
71236;SDS011;58984;51.960;5.582;2024-01-25T13:28:19;30.50;;;16.35;;
71236;SDS011;58984;51.960;5.582;2024-01-25T13:30:44;35.40;;;16.60;;
71236;SDS011;58984;51.960;5.582;2024-01-25T13:33:10;33.20;;;15.50;;
71236;SDS011;58984;51.960;5.582;2024-01-25T13:35:36;35.17;;;17.08;;
71236;SDS011;58984;51.960;5.582;2024-01-25T13:38:01;37.10;;;16.00;;
71236;SDS011;58984;51.960;5.582;2024-01-25T13:40:27;31.90;;;16.38;;
71236;SDS011;58984;51.960;5.582;2024-01-25T13:42:52;41.10;;;18.40;;
71236;SDS011;58984;51.960;5.582;2024-01-25T13:45:20;49.08;;;18.70;;
71236;SDS011;58984;51.960;5.582;2024-01-25T13:47:45;44.90;;;18.20;;
71236;SDS011;58984;51.960;5.582;2024-01-25T13:50:11;34.05;;;16.05;;
71236;SDS011;58984;51.960;5.582;2024-01-25T13:52:36;40.90;;;17.30;;
71236;SDS011;58984;51.960;5.582;2024-01-25T13:55:02;41.45;;;18.27;;
71236;SDS011;58984;51.960;5.582;2024-01-25T13:57:28;31.95;;;16.63;;
71236;SDS011;58984;51.960;5.582;2024-01-25T13:59:54;38.78;;;17.23;;
71236;SDS011;58984;51.960;5.582;2024-01-25T14:02:19;37.10;;;18.33;;
71236;SDS011;58984;51.960;5.582;2024-01-25T14:04:45;43.10;;;17.40;;
71236;SDS011;58984;51.960;5.582;2024-01-25T14:07:11;49.38;;;18.80;;
71236;SDS011;58984;51.960;5.582;2024-01-25T14:09:38;35.00;;;17.42;;
71236;SDS011;58984;51.960;5.582;2024-01-25T14:12:06;41.40;;;19.17;;
71236;SDS011;58984;51.960;5.582;2024-01-25T14:14:31;42.45;;;19.40;;
71236;SDS011;58984;51.960;5.582;2024-01-25T14:17:00;39.78;;;18.00;;
71236;SDS011;58984;51.960;5.582;2024-01-25T14:19:25;44.20;;;18.58;;
71236;SDS011;58984;51.960;5.582;2024-01-25T14:21:51;46.95;;;18.83;;
71236;SDS011;58984;51.960;5.582;2024-01-25T14:24:16;42.05;;;19.05;;
71236;SDS011;58984;51.960;5.582;2024-01-25T14:26:43;39.38;;;20.35;;